WEATHER DATA

TODAY
Time Temp. Dewp. Hum. Wind dir Wind speed Wind gust Bar. 1h Prec. 24h Prec.
00:04 12.8 10.5 86 231 1.1 2.5 1021.5 0.0000 0.0000
00:13 12.7 10.4 86 237 1.1 1.7 1021.5 0.0000 0.0000
00:23 12.6 10.3 86 215 0.3 1.1 1021.5 0.0000 0.0000
00:34 12.5 10.2 86 175 0.3 0.8 1021.3 0.0000 0.0000
00:49 12.4 10.1 86 180 0.3 0.8 1021.5 0.0000 0.0000
01:09 12.4 10.1 86 225 0.3 0.8 1021.5 0.0000 0.0000
01:29 12.3 10 86 192 0.3 0.8 1021.3 0.0000 0.0000
01:38 12.2 9.9 86 180 0.3 0.8 1021.2 0.0000 0.0000
01:49 12.2 9.9 86 156 0.3 0.8 1021.1 0.0000 0.0000
02:09 12 9.7 86 180 0.3 0.3 1021.1 0.0000 0.0000
02:19 12 9.7 86 153 0.3 0.8 1020.9 0.0000 0.0000
02:29 12 9.7 86 158 0.3 0.8 1020.9 0.0000 0.0000
02:39 11.8 9.5 86 0 0.8 1020.8 0.0000 0.0000
02:49 11.6 9.2 85 206 0.3 0.8 1020.8 0.0000 0.0000
03:00 11.4 9 85 164 0.3 0.8 1020.6 0.0000 0.0000
03:09 11.3 8.9 85 0 0.3 1020.4 0.0000 0.0000
03:19 11 8.6 85 188 0.3 0.8 1020.4 0.0000 0.0000
03:30 10.8 8.4 85 171 0.3 0.8 1020.5 0.0000 0.0000
03:40 10.6 8.2 85 149 0.3 0.8 1020.3 0.0000 0.0000
03:59 10.3 7.9 85 147 0.3 0.8 1020.2 0.0000 0.0000
04:30 9.8 7.4 85 0 0.3 1019.6 0.0000 0.0000
05:00 9.4 7 85 145 0.3 0.8 1019.7 0.0000 0.0000
05:10 9.2 6.8 85 146 0.3 0.8 1019.8 0.0000 0.0000
05:25 9.1 6.9 86 142 0.3 0.8 1019.8 0.0000 0.0000
05:35 9.1 6.9 86 0 0.3 1019.8 0.0000 0.0000
05:45 9.1 6.9 86 0 0.3 1019.8 0.0000 0.0000
05:56 9.2 7 86 0 0.8 1019.6 0.0000 0.0000
06:05 9.2 7 86 150 0.3 0.8 1019.5 0.0000 0.0000
06:15 9 6.8 86 135 0.3 0.8 1019.4 0.0000 0.0000
06:25 9 6.8 86 143 0.3 0.8 1019.3 0.0000 0.0000
06:36 9 6.8 86 0 0.3 1019.2 0.0000 0.0000
06:45 9 6.8 86 0 0.3 1019.2 0.0000 0.0000
06:55 8.9 6.7 86 0 0.3 1019 0.0000 0.0000
07:06 8.8 6.4 85 0 0.3 1019 0.0000 0.0000
07:16 8.7 6.5 86 0 0.3 1018.9 0.0000 0.0000
07:26 8.6 6.4 86 0 0.3 1018.7 0.0000 0.0000
07:36 8.5 6.3 86 0 0.3 1018.6 0.0000 0.0000
07:46 8.3 6.1 86 130 0.3 0.8 1018.4 0.0000 0.0000
08:06 8.3 6.1 86 135 0.3 0.8 1018.7 0.0000 0.0000
08:16 8.2 6 86 90 0.3 0.8 1018.8 0.0000 0.0000
08:26 8.3 6.3 87 0 0.8 1018.7 0.0000 0.0000
08:36 8.4 6.4 87 0 0.8 1018.7 0.0000 0.0000
08:46 8.5 6.5 87 0 0.3 1018.8 0.0000 0.0000
08:57 8.6 6.6 87 135 0.3 1.1 1018.8 0.0000 0.0000
09:06 8.8 6.9 88 90 0.3 1.1 1018.6 0.0000 0.0000
09:27 9.2 7.3 88 90 0.3 1.7 1018.7 0.0000 0.0000
09:37 9.5 7.6 88 90 0.8 2.2 1018.7 0.0000 0.0000
09:46 9.7 7.8 88 102 0.8 2.5 1018.7 0.0000 0.0000
09:57 9.9 8 88 90 0.8 1.7 1018.4 0.0000 0.0000
10:07 10 8.1 88 30 0.3 1.4 1018.4 0.0000 0.0000
10:26 10.2 8.3 88 90 0.8 1.7 1018.3 0.0000 0.0000
10:37 10.3 8.4 88 102 0.8 1.7 1018.4 0.0000 0.0000
10:52 10.4 8.5 88 101 0.8 1.7 1018.1 0.0000 0.0000
11:02 10.5 8.6 88 90 0.8 1.4 1018.1 0.0000 0.0000
11:12 10.6 8.7 88 60 0.3 1.1 1017.9 0.0000 0.0000
11:27 10.9 9.2 89 354 0.3 1.1 1017.6 0.0000 0.0000
11:37 11 9.3 89 24 0.3 1.7 1017.6 0.0000 0.0000
11:57 11.3 9.6 89 315 0.3 2.2 1017 0.0000 0.0000
12:07 11.4 9.5 88 270 0.3 0.8 1016.9 0.0000 0.0000
12:17 11.5 9.6 88 270 0.3 2.2 1016.8 0.0000 0.0000
12:28 11.9 10.1 89 315 0.3 1.4 1016.6 0.0000 0.0000
12:37 12.1 10.2 88 90 0.3 1.1 1016.7 0.0000 0.0000
13:03 12.5 10.4 87 315 0.8 1.4 1016 0.0000 0.0000
13:13 12.6 10.5 87 323 0.3 1.1 1016 0.0000 0.0000
13:38 13.2 10.7 85 330 0.8 1.7 1015.7 0.0000 0.0000
13:48 13.4 10.8 84 329 0.8 1.7 1015.5 0.0000 0.0000
13:58 13.6 10.8 83 270 0.8 1.7 1015.2 0.0000 0.0000
14:18 13.9 10.7 81 307 0.8 2.2 1015.1 0.0000 0.0000
14:58 14 10.6 80 315 0.8 2.5 1014.4 0.0000 0.0000
15:08 14.1 10.5 79 318 0.8 1.7 1014.2 0.0000 0.0000
15:19 14.1 10.7 80 318 0.8 1.7 1014.2 0.0000 0.0000
15:28 14.2 10.8 80 315 0.8 1.7 1014.2 0.0000 0.0000
15:38 14.4 10.8 79 315 0.8 2.2 1013.9 0.0000 0.0000
15:48 14.5 10.7 78 325 0.8 1.7 1013.9 0.0000 0.0000
15:59 14.5 10.7 78 302 0.3 1.4 1013.9 0.0000 0.0000
16:09 14.5 10.7 78 135 0.8 2.2 1013.8 0.0000 0.0000
16:18 14.5 10.9 79 320 0.8 1.7 1013.1 0.0000 0.0000
16:29 14.4 10.8 79 304 0.8 1.7 1013.2 0.0000 0.0000
16:39 14.4 10.8 79 315 0.3 1.7 1013 0.0000 0.0000
16:49 14.4 10.8 79 319 0.3 1.7 1013.1 0.0000 0.0000
16:59 14.3 10.7 79 319 0.3 1.7 1012.7 0.0000 0.0000
17:09 14.3 10.9 80 319 0.3 1.7 1012.5 0.0000 0.0000
17:14 14.2 10.8 80 319 0.3 1.7 1012.6 0.0000 0.0000
17:24 14.1 10.7 80 310 0.3 1.1 1012.6 0.0000 0.0000
17:34 14 10.8 81 322 0.3 1.4 1012.4 0.0000 0.0000
17:44 13.9 10.7 81 319 0.3 1.7 1012.3 0.0000 0.0000
17:54 13.8 10.6 81 315 0.3 0.8 1012 0.0000 0.0000
18:04 13.6 10.6 82 270 0.3 0.8 1011.9 0.0000 0.0000
18:15 13.4 10.4 82 270 0.3 0.8 1011.9 0.0000 0.0000
18:24 13.3 10.5 83 90 0.3 1.1 1012 0.0000 0.0000
18:34 13.1 10.3 83 26 0.3 1.1 1011.4 0.0000 0.0000
18:44 13 10.2 83 26 0.3 1.1 1011.3 0.0000 0.0000
19:03 12.9 10.3 84 26 0.3 1.1 1011.3 0.0000 0.0000
19:23 12.9 10.3 84 90 0.3 1.4 1011 0.0000 0.0000
19:33 12.9 10.4 85 135 0.8 2.8 1011.1 0.0000 0.0000
19:43 13 10.5 85 310 0.3 1.4 1010.9 0.0000 0.0000

DAY STATISTIC

2019-10-23
TEMPERATURE
AVERAGE
11.5
HIGH
14.5
15:48
LOW
8.2
08:16
PRESSURE
AVERAGE
1017.2
HIGH
1021.5
00:04
LOW
1010.9
19:43
DEWPOINT
AVERAGE
9.0
HIGH
10.9
16:18
LOW
6.0
08:16
HUMIDITY
AVERAGE
85
HIGH
89
11:27
LOW
78
15:48
WIND SPEED
AVERAGE
0.4
HIGH
1.1
00:04
WIND GUST
AVERAGE
1.2
HIGH
2.8
19:33
WIND DIRECTION
PREVAILING
NW
27.1%
N
1.0
NE
6.3
E
13.5
SE
15.6
S
9.4
SW
5.2
W
5.2
NW
27.1
PRECIPITATION
RAIN HOUR
0.0
RAIN DAY
0.0
TEMPERATURE (°C)
LOW
8.2
HIGH
14.5
AVERAGE
11.5
PRESSURE (hpa)
LOW
1010.9
HIGH
1021.5
AVERAGE
1017.2
DEVICE